Time;durP1;ratioP1;P1;durP2;ratioP2;P2;SDS_P1;SDS_P2;PMS_P1;PMS_P2;Temp;Humidity;BMP_temperature;BMP_pressure;BME280_temperature;BME280_humidity;BME280_pressure;Samples;Min_cycle;Max_cycle;Signal;HPM_P1;HPM_P2
2022/06/22 00:01:18;;;;;;;;;;;12.80;99.90;;;;;;5029331;28;19929;-69
2022/06/22 00:03:48;;;;;;;;;;;12.80;99.90;;;;;;5028918;28;20015;-69
2022/06/22 00:06:19;;;;;;;;;;;12.80;99.90;;;;;;5031119;28;20031;-69
2022/06/22 00:08:46;;;;;;;;;;;12.90;99.90;;;;;;5026360;28;19968;-70
2022/06/22 00:11:14;;;;;;;;;;;12.90;99.90;;;;;;5029162;28;20300;-69
2022/06/22 00:13:45;;;;;;;;;;;12.90;99.90;;;;;;5027475;28;19952;-70
2022/06/22 00:16:17;;;;;;;;;;;12.90;99.90;;;;;;5030140;28;20299;-70
2022/06/22 00:18:46;;;;;;;;;;;12.70;99.90;;;;;;5029205;28;20354;-70
2022/06/22 00:21:17;;;;;;;;;;;12.70;99.90;;;;;;5030135;28;20030;-70
2022/06/22 00:23:48;;;;;;;;;;;12.70;99.90;;;;;;5025451;28;20435;-69
2022/06/22 00:26:20;;;;;;;;;;;12.70;99.90;;;;;;5028768;28;19931;-69
2022/06/22 00:28:54;;;;;;;;;;;12.70;99.90;;;;;;5026289;28;19976;-69
2022/06/22 00:31:27;;;;;;;;;;;12.70;99.90;;;;;;5030048;28;19925;-69
2022/06/22 00:34:04;;;;;;;;;;;12.70;99.90;;;;;;5026979;28;20008;-69
2022/06/22 00:36:34;;;;;;;;;;;12.70;99.90;;;;;;5030312;28;20066;-69
2022/06/22 00:39:08;;;;;;;;;;;12.60;99.90;;;;;;5029057;28;20178;-69
2022/06/22 00:41:36;;;;;;;;;;;12.60;99.90;;;;;;5029190;28;20028;-69
2022/06/22 00:44:06;;;;;;;;;;;12.40;99.90;;;;;;5027002;28;19951;-69
2022/06/22 00:46:35;;;;;;;;;;;12.10;99.90;;;;;;5030665;28;19933;-69
2022/06/22 00:49:08;;;;;;;;;;;11.90;99.90;;;;;;5028629;28;20013;-69
2022/06/22 00:51:36;;;;;;;;;;;11.80;99.90;;;;;;5024004;28;19925;-69
2022/06/22 00:54:04;;;;;;;;;;;11.70;99.90;;;;;;5027758;28;20024;-68
2022/06/22 00:56:42;;;;;;;;;;;11.80;99.90;;;;;;5022626;28;19925;-69
2022/06/22 00:59:17;;;;;;;;;;;11.90;99.90;;;;;;5019935;28;19925;-69
2022/06/22 01:01:47;;;;;;;;;;;11.90;99.90;;;;;;5031519;28;20352;-69
2022/06/22 01:04:16;;;;;;;;;;;11.90;99.90;;;;;;5022829;28;20368;-69
2022/06/22 01:06:46;;;;;;;;;;;11.80;99.90;;;;;;5026119;28;20016;-69
2022/06/22 01:09:15;;;;;;;;;;;11.90;99.90;;;;;;5027731;28;19972;-68
2022/06/22 01:14:38;;;;;;;;;;;12.00;99.90;;;;;;5031531;28;19932;-69
2022/06/22 01:17:12;;;;;;;;;;;12.00;99.90;;;;;;5031984;28;20024;-69
2022/06/22 01:19:46;;;;;;;;;;;12.00;99.90;;;;;;5031415;28;20047;-69
2022/06/22 01:22:21;;;;;;;;;;;12.00;99.90;;;;;;5032269;28;20008;-70
2022/06/22 01:24:52;;;;;;;;;;;12.00;99.90;;;;;;5031842;28;20027;-69
2022/06/22 01:27:30;;;;;;;;;;;12.00;99.90;;;;;;5032450;28;19965;-69
2022/06/22 01:29:58;;;;;;;;;;;12.00;99.90;;;;;;5029657;28;19925;-69
2022/06/22 01:32:27;;;;;;;;;;;12.00;99.90;;;;;;5033377;28;20488;-70
2022/06/22 01:34:56;;;;;;;;;;;12.00;99.90;;;;;;5033398;28;20011;-70
2022/06/22 01:37:24;;;;;;;;;;;12.10;99.90;;;;;;5034375;28;19925;-69
2022/06/22 01:39:51;;;;;;;;;;;12.10;99.90;;;;;;5029475;28;20015;-70
2022/06/22 01:42:19;;;;;;;;;;;12.10;99.90;;;;;;5034363;28;19925;-69
2022/06/22 01:44:51;;;;;;;;;;;12.10;99.90;;;;;;5031678;28;19925;-69
2022/06/22 01:47:28;;;;;;;;;;;12.10;99.90;;;;;;5033347;28;19925;-69
2022/06/22 01:49:58;;;;;;;;;;;12.10;99.90;;;;;;5030028;28;19925;-69
2022/06/22 01:52:38;;;;;;;;;;;12.10;99.90;;;;;;5032238;28;20008;-69
2022/06/22 01:55:10;;;;;;;;;;;12.10;99.90;;;;;;5032145;28;19999;-69
2022/06/22 01:57:40;;;;;;;;;;;12.10;99.90;;;;;;5029474;28;19979;-69
2022/06/22 02:00:11;;;;;;;;;;;12.00;99.90;;;;;;5031002;28;19969;-69
2022/06/22 02:02:40;;;;;;;;;;;12.00;99.90;;;;;;5031025;28;19932;-68
2022/06/22 02:05:13;;;;;;;;;;;11.90;99.90;;;;;;5031923;28;20359;-68
2022/06/22 02:07:48;;;;;;;;;;;11.80;99.90;;;;;;5032470;28;19925;-69
2022/06/22 02:10:25;;;;;;;;;;;11.90;99.90;;;;;;5033508;28;20384;-69
2022/06/22 02:12:56;;;;;;;;;;;11.80;99.90;;;;;;5014335;28;19925;-69
2022/06/22 02:15:28;;;;;;;;;;;11.80;99.90;;;;;;5017311;28;19961;-69
2022/06/22 02:17:55;;;;;;;;;;;11.70;99.90;;;;;;5030495;28;20013;-69
2022/06/22 02:20:39;;;;;;;;;;;11.70;99.90;;;;;;5013948;28;19926;-69
2022/06/22 02:23:11;;;;;;;;;;;11.60;99.90;;;;;;5026827;28;20008;-69
2022/06/22 02:25:41;;;;;;;;;;;11.40;99.90;;;;;;5029460;28;19933;-69
2022/06/22 02:28:08;;;;;;;;;;;11.40;99.90;;;;;;5030270;28;20020;-69
2022/06/22 02:30:36;;;;;;;;;;;11.40;99.90;;;;;;5032835;28;19957;-70
2022/06/22 02:33:05;;;;;;;;;;;11.50;99.90;;;;;;5030122;28;19975;-69
2022/06/22 02:35:31;;;;;;;;;;;11.50;99.90;;;;;;5032061;28;20008;-68
2022/06/22 02:38:02;;;;;;;;;;;11.40;99.90;;;;;;5030875;28;20012;-70
2022/06/22 02:40:31;;;;;;;;;;;11.40;99.90;;;;;;5032762;28;19931;-69
2022/06/22 02:45:44;;;;;;;;;;;11.40;99.90;;;;;;5030290;28;20423;-69
2022/06/22 02:48:24;;;;;;;;;;;11.40;99.90;;;;;;5030208;28;19968;-69
2022/06/22 02:50:55;;;;;;;;;;;11.40;99.90;;;;;;5032711;28;19957;-70
2022/06/22 02:53:23;;;;;;;;;;;11.30;99.90;;;;;;5029894;28;20020;-70
2022/06/22 02:55:50;;;;;;;;;;;11.30;99.90;;;;;;5032002;28;19925;-70
2022/06/22 02:58:24;;;;;;;;;;;11.40;99.90;;;;;;5031339;28;20020;-69
2022/06/22 03:00:53;;;;;;;;;;;11.40;99.90;;;;;;5030584;28;20365;-70
2022/06/22 03:03:20;;;;;;;;;;;11.30;99.90;;;;;;5030725;28;20003;-70
2022/06/22 03:05:49;;;;;;;;;;;11.30;99.90;;;;;;5031990;28;20016;-70
2022/06/22 03:08:18;;;;;;;;;;;11.30;99.90;;;;;;5031186;28;20391;-70
2022/06/22 03:10:46;;;;;;;;;;;11.30;99.90;;;;;;5031347;28;19929;-69
2022/06/22 03:13:14;;;;;;;;;;;11.20;99.90;;;;;;5029099;28;20443;-69
2022/06/22 03:15:41;;;;;;;;;;;11.20;99.90;;;;;;5031212;28;19980;-70
2022/06/22 03:18:11;;;;;;;;;;;11.10;99.90;;;;;;5030007;28;19976;-70
2022/06/22 03:20:41;;;;;;;;;;;11.20;99.90;;;;;;5023013;28;20388;-70
2022/06/22 03:23:13;;;;;;;;;;;11.20;99.90;;;;;;5030020;28;19951;-70
2022/06/22 03:25:43;;;;;;;;;;;11.30;99.90;;;;;;5030326;28;20355;-69
2022/06/22 03:28:13;;;;;;;;;;;11.30;99.90;;;;;;5017240;28;19926;-69
2022/06/22 03:30:42;;;;;;;;;;;11.30;99.90;;;;;;5031683;28;20387;-70
2022/06/22 03:33:12;;;;;;;;;;;11.40;99.90;;;;;;5026370;28;19937;-69
2022/06/22 03:35:41;;;;;;;;;;;11.40;99.90;;;;;;5022633;28;20347;-69
2022/06/22 03:38:09;;;;;;;;;;;11.40;99.90;;;;;;5025821;28;20448;-70
2022/06/22 03:40:38;;;;;;;;;;;11.40;99.90;;;;;;5031193;28;20003;-69
2022/06/22 03:43:09;;;;;;;;;;;11.40;99.90;;;;;;5027361;28;19973;-69
2022/06/22 03:45:39;;;;;;;;;;;11.30;99.90;;;;;;5031993;28;19972;-69
2022/06/22 03:48:10;;;;;;;;;;;11.30;99.90;;;;;;5029937;28;19943;-69
2022/06/22 03:50:39;;;;;;;;;;;11.20;99.90;;;;;;5025952;28;20269;-71
2022/06/22 03:53:10;;;;;;;;;;;11.20;99.90;;;;;;5021380;28;19972;-70
2022/06/22 03:55:38;;;;;;;;;;;11.20;99.90;;;;;;5030333;28;20012;-70
2022/06/22 03:58:09;;;;;;;;;;;11.20;99.90;;;;;;5028879;28;20731;-69
2022/06/22 04:00:36;;;;;;;;;;;11.20;99.90;;;;;;5028245;28;20411;-70
2022/06/22 04:03:05;;;;;;;;;;;11.20;99.90;;;;;;5022592;28;19932;-70
2022/06/22 04:05:34;;;;;;;;;;;11.30;99.90;;;;;;5028403;28;19937;-70
2022/06/22 04:08:03;;;;;;;;;;;11.40;99.90;;;;;;5027182;28;19972;-70
2022/06/22 04:10:38;;;;;;;;;;;11.40;99.90;;;;;;5026487;28;19968;-70
2022/06/22 04:13:07;;;;;;;;;;;11.40;99.90;;;;;;5028682;28;20018;-69
2022/06/22 04:15:36;;;;;;;;;;;11.50;99.90;;;;;;5024760;28;20017;-69
2022/06/22 04:18:06;;;;;;;;;;;11.60;99.90;;;;;;5026077;28;19926;-68
2022/06/22 04:20:50;;;;;;;;;;;11.60;99.90;;;;;;5029854;28;20023;-71
2022/06/22 04:23:22;;;;;;;;;;;11.70;99.90;;;;;;5014419;28;20031;-71
2022/06/22 04:25:49;;;;;;;;;;;11.80;99.90;;;;;;5019906;28;20024;-69
2022/06/22 04:28:16;;;;;;;;;;;11.80;99.90;;;;;;5027994;28;20000;-68
2022/06/22 04:30:47;;;;;;;;;;;11.90;99.90;;;;;;5028392;28;19971;-69
2022/06/22 04:33:16;;;;;;;;;;;11.90;99.90;;;;;;5021966;28;19983;-69
2022/06/22 04:35:45;;;;;;;;;;;11.90;99.90;;;;;;5027335;28;19960;-69
2022/06/22 04:38:17;;;;;;;;;;;11.90;99.90;;;;;;5027985;28;19961;-69
2022/06/22 04:40:51;;;;;;;;;;;12.00;99.90;;;;;;5029184;28;20296;-69
2022/06/22 04:43:17;;;;;;;;;;;12.20;99.90;;;;;;5028769;28;20008;-69
2022/06/22 04:45:45;;;;;;;;;;;12.30;99.90;;;;;;5030136;28;20016;-69
2022/06/22 04:48:15;;;;;;;;;;;12.50;99.90;;;;;;5033099;28;19925;-69
2022/06/22 04:50:43;;;;;;;;;;;12.70;99.90;;;;;;5033922;28;20019;-68
2022/06/22 04:53:15;;;;;;;;;;;12.80;99.90;;;;;;5030761;28;20288;-68
2022/06/22 04:55:41;;;;;;;;;;;12.90;99.90;;;;;;5034654;28;19975;-68
2022/06/22 04:58:22;;;;;;;;;;;13.20;99.90;;;;;;5033326;28;19940;-68
2022/06/22 05:00:50;;;;;;;;;;;13.30;99.90;;;;;;5034086;28;19949;-71
2022/06/22 05:03:17;;;;;;;;;;;13.40;99.90;;;;;;5032674;28;20276;-69
2022/06/22 05:05:44;;;;;;;;;;;13.60;99.90;;;;;;5032945;28;19925;-70
2022/06/22 05:08:13;;;;;;;;;;;13.60;99.90;;;;;;5032897;28;19925;-70
2022/06/22 05:10:42;;;;;;;;;;;13.60;99.90;;;;;;5030813;28;19965;-69
2022/06/22 05:13:13;;;;;;;;;;;13.60;99.90;;;;;;5032881;28;19929;-69
2022/06/22 05:15:41;;;;;;;;;;;13.80;99.90;;;;;;5031320;28;20021;-69
2022/06/22 05:18:14;;;;;;;;;;;13.80;99.90;;;;;;5032837;28;19983;-69
2022/06/22 05:20:43;;;;;;;;;;;13.90;99.90;;;;;;5032761;28;20435;-70
2022/06/22 05:23:10;;;;;;;;;;;14.10;99.90;;;;;;5022974;28;19925;-70
2022/06/22 05:25:38;;;;;;;;;;;14.20;99.90;;;;;;5032143;28;19926;-71
2022/06/22 05:28:06;;;;;;;;;;;14.40;99.90;;;;;;5026114;28;19929;-71
2022/06/22 05:30:35;;;;;;;;;;;14.60;99.90;;;;;;5021881;28;20573;-70
2022/06/22 05:33:05;;;;;;;;;;;14.70;99.90;;;;;;5014324;28;19933;-70
2022/06/22 05:35:35;;;;;;;;;;;14.80;99.90;;;;;;5026123;28;20396;-70
2022/06/22 05:38:06;;;;;;;;;;;15.00;99.90;;;;;;5028655;28;20020;-70
2022/06/22 05:40:34;;;;;;;;;;;15.00;99.90;;;;;;5029163;28;19933;-71
2022/06/22 05:43:01;;;;;;;;;;;15.20;99.90;;;;;;5030579;28;19960;-69
2022/06/22 05:45:38;;;;;;;;;;;15.20;99.90;;;;;;5028644;28;19959;-69
2022/06/22 05:48:06;;;;;;;;;;;15.20;99.90;;;;;;5026933;28;20003;-69
2022/06/22 05:50:37;;;;;;;;;;;15.20;99.90;;;;;;5027388;28;19933;-69
2022/06/22 05:53:06;;;;;;;;;;;15.40;99.90;;;;;;5024600;28;19937;-68
2022/06/22 05:55:38;;;;;;;;;;;15.50;99.90;;;;;;5026449;28;19951;-68
2022/06/22 05:58:07;;;;;;;;;;;15.50;99.90;;;;;;5018074;28;20039;-69
2022/06/22 06:00:37;;;;;;;;;;;15.70;99.90;;;;;;5023141;28;20281;-67
2022/06/22 06:03:06;;;;;;;;;;;16.10;99.90;;;;;;5023747;28;19936;-69
2022/06/22 06:05:35;;;;;;;;;;;16.90;99.90;;;;;;5026154;28;19980;-70
2022/06/22 06:08:07;;;;;;;;;;;17.30;99.90;;;;;;5022870;28;19972;-69
2022/06/22 06:10:36;;;;;;;;;;;17.40;99.90;;;;;;5025842;28;20208;-69
2022/06/22 06:13:06;;;;;;;;;;;17.70;99.90;;;;;;5024182;28;19925;-70
2022/06/22 06:15:35;;;;;;;;;;;17.70;99.90;;;;;;5026792;28;20367;-70
2022/06/22 06:18:02;;;;;;;;;;;17.90;99.90;;;;;;5027230;28;19968;-70
2022/06/22 06:20:31;;;;;;;;;;;17.20;99.90;;;;;;5025093;28;20003;-70
2022/06/22 06:23:00;;;;;;;;;;;16.90;99.90;;;;;;5025476;28;20042;-70
2022/06/22 06:28:33;;;;;;;;;;;16.50;99.90;;;;;;4953498;28;19977;-70
2022/06/22 06:31:05;;;;;;;;;;;17.00;99.90;;;;;;5010619;28;19932;-71
2022/06/22 06:33:34;;;;;;;;;;;17.60;99.90;;;;;;5025862;28;19991;-70
2022/06/22 06:36:03;;;;;;;;;;;17.80;99.90;;;;;;5027979;28;19940;-70
2022/06/22 06:38:34;;;;;;;;;;;18.20;99.90;;;;;;5030385;28;19976;-70
2022/06/22 06:41:04;;;;;;;;;;;18.20;99.90;;;;;;5031327;28;19932;-70
2022/06/22 06:43:37;;;;;;;;;;;18.20;99.90;;;;;;5026533;28;19925;-70
2022/06/22 06:46:05;;;;;;;;;;;17.60;99.90;;;;;;5028834;28;20020;-66
2022/06/22 06:48:33;;;;;;;;;;;17.60;99.90;;;;;;5029813;28;20380;-68
2022/06/22 06:51:02;;;;;;;;;;;17.60;99.90;;;;;;5028034;28;20024;-69
2022/06/22 06:53:32;;;;;;;;;;;17.70;99.90;;;;;;5028361;28;19925;-69
2022/06/22 06:56:01;;;;;;;;;;;17.60;99.90;;;;;;5026560;28;19926;-69
2022/06/22 06:58:32;;;;;;;;;;;17.20;99.90;;;;;;5029570;28;19925;-69
2022/06/22 07:00:59;;;;;;;;;;;17.60;99.90;;;;;;5027083;28;19925;-70
2022/06/22 07:03:27;;;;;;;;;;;17.90;99.90;;;;;;5026815;28;19965;-69
2022/06/22 07:05:54;;;;;;;;;;;17.90;99.90;;;;;;5026112;28;19929;-68
2022/06/22 07:08:23;;;;;;;;;;;18.80;99.90;;;;;;5023031;28;20444;-68
2022/06/22 07:10:52;;;;;;;;;;;18.90;99.90;;;;;;5028172;28;20292;-68
2022/06/22 07:13:22;;;;;;;;;;;18.80;99.90;;;;;;5027432;28;19925;-71
2022/06/22 07:15:53;;;;;;;;;;;18.80;99.90;;;;;;5028357;28;20270;-71
2022/06/22 07:18:21;;;;;;;;;;;18.90;99.70;;;;;;5021036;28;19988;-69
2022/06/22 07:20:49;;;;;;;;;;;18.60;99.90;;;;;;5022386;28;20028;-69
2022/06/22 07:23:22;;;;;;;;;;;18.60;99.70;;;;;;5022891;28;20376;-69
2022/06/22 07:25:51;;;;;;;;;;;18.60;99.90;;;;;;5023539;28;20387;-70
2022/06/22 07:28:22;;;;;;;;;;;18.70;99.90;;;;;;5025028;28;19932;-70
2022/06/22 07:30:52;;;;;;;;;;;18.60;99.90;;;;;;5027755;28;19925;-70
2022/06/22 07:33:20;;;;;;;;;;;19.00;99.90;;;;;;5025900;28;20590;-70
2022/06/22 07:35:49;;;;;;;;;;;19.90;98.40;;;;;;5026271;28;19979;-70
2022/06/22 07:38:22;;;;;;;;;;;20.80;95.80;;;;;;5025142;28;19972;-70
2022/06/22 07:43:31;;;;;;;;;;;21.10;92.60;;;;;;5019761;28;19931;-70
2022/06/22 07:45:59;;;;;;;;;;;20.60;92.60;;;;;;5024755;28;20019;-71
2022/06/22 07:48:26;;;;;;;;;;;21.00;91.80;;;;;;5024618;28;20021;-70
2022/06/22 07:50:54;;;;;;;;;;;21.10;90.70;;;;;;5026109;28;20353;-71
2022/06/22 07:53:26;;;;;;;;;;;21.20;90.10;;;;;;5024226;28;19972;-70
2022/06/22 07:55:56;;;;;;;;;;;22.40;84.50;;;;;;5029494;28;20008;-70
2022/06/22 07:58:27;;;;;;;;;;;22.30;80.00;;;;;;5023650;28;19929;-70
2022/06/22 08:00:55;;;;;;;;;;;22.70;77.30;;;;;;5023084;28;19925;-71
2022/06/22 08:03:27;;;;;;;;;;;22.50;76.70;;;;;;5019545;28;20364;-72
2022/06/22 08:05:56;;;;;;;;;;;22.70;75.20;;;;;;5028272;28;19933;-71
2022/06/22 08:08:25;;;;;;;;;;;22.40;75.40;;;;;;5020375;28;19968;-71
2022/06/22 08:10:54;;;;;;;;;;;22.70;72.20;;;;;;5023660;28;19932;-71
2022/06/22 08:13:22;;;;;;;;;;;22.60;70.20;;;;;;5020177;28;20019;-71
2022/06/22 08:15:51;;;;;;;;;;;21.90;68.10;;;;;;5024181;28;19947;-71
2022/06/22 08:18:19;;;;;;;;;;;22.40;69.70;;;;;;5019912;28;20455;-71
2022/06/22 08:20:49;;;;;;;;;;;22.90;67.10;;;;;;5027912;28;20249;-71
2022/06/22 08:23:19;;;;;;;;;;;22.10;66.60;;;;;;5026405;28;19931;-71
2022/06/22 08:25:46;;;;;;;;;;;22.80;65.90;;;;;;5025822;28;19980;-70
2022/06/22 08:28:14;;;;;;;;;;;22.90;61.80;;;;;;5023709;28;20381;-71
2022/06/22 08:30:40;;;;;;;;;;;23.30;59.00;;;;;;5026129;28;22500;-71
2022/06/22 08:33:09;;;;;;;;;;;22.60;60.90;;;;;;5019435;28;20027;-71
2022/06/22 08:35:38;;;;;;;;;;;22.80;60.40;;;;;;5022014;28;19925;-71
2022/06/22 08:38:08;;;;;;;;;;;22.30;61.30;;;;;;5021608;28;20445;-71
2022/06/22 08:40:37;;;;;;;;;;;22.70;59.30;;;;;;5018301;28;19929;-72
2022/06/22 08:43:08;;;;;;;;;;;22.80;58.90;;;;;;5022550;28;19933;-69
2022/06/22 08:45:40;;;;;;;;;;;23.00;58.00;;;;;;5022366;28;19940;-70
2022/06/22 08:48:28;;;;;;;;;;;23.40;55.90;;;;;;5022321;28;19929;-71
2022/06/22 08:51:11;;;;;;;;;;;24.00;54.30;;;;;;5018791;28;19931;-71
2022/06/22 08:53:51;;;;;;;;;;;23.40;54.30;;;;;;5018405;28;19933;-70
2022/06/22 08:56:24;;;;;;;;;;;24.10;50.80;;;;;;5019910;28;20739;-70
2022/06/22 08:59:02;;;;;;;;;;;24.50;49.20;;;;;;5017620;28;19975;-70
2022/06/22 09:01:34;;;;;;;;;;;25.10;47.40;;;;;;5018774;28;19933;-72
2022/06/22 09:04:27;;;;;;;;;;;26.30;42.90;;;;;;5017648;28;20301;-70
2022/06/22 09:07:09;;;;;;;;;;;25.40;41.50;;;;;;5021113;28;20020;-70
2022/06/22 09:09:47;;;;;;;;;;;24.70;42.60;;;;;;5020524;28;20024;-71
2022/06/22 09:12:20;;;;;;;;;;;24.50;41.30;;;;;;5023740;28;19929;-70
2022/06/22 09:14:55;;;;;;;;;;;24.30;42.40;;;;;;5021814;28;19925;-70
2022/06/22 09:17:27;;;;;;;;;;;23.50;42.10;;;;;;5025193;28;20020;-70
2022/06/22 09:20:09;;;;;;;;;;;24.40;41.70;;;;;;5022920;28;22428;-70
2022/06/22 09:22:42;;;;;;;;;;;24.00;41.90;;;;;;5024646;28;19932;-70
2022/06/22 09:25:13;;;;;;;;;;;23.90;42.10;;;;;;5026199;28;20008;-71
2022/06/22 09:27:43;;;;;;;;;;;23.60;41.60;;;;;;5019723;28;20372;-71
2022/06/22 09:30:20;;;;;;;;;;;24.00;41.20;;;;;;5025626;28;19932;-74
2022/06/22 09:33:02;;;;;;;;;;;24.70;39.40;;;;;;5024288;28;19979;-69
2022/06/22 09:35:40;;;;;;;;;;;24.00;40.40;;;;;;5027163;28;20423;-70
2022/06/22 09:38:14;;;;;;;;;;;24.20;40.10;;;;;;5028504;28;19925;-69
2022/06/22 09:40:48;;;;;;;;;;;24.40;40.80;;;;;;5029165;28;19925;-70
2022/06/22 09:43:41;;;;;;;;;;;23.80;39.90;;;;;;5029902;28;20036;-69
2022/06/22 09:46:26;;;;;;;;;;;23.90;42.10;;;;;;4995075;28;20848;-69
2022/06/22 09:48:59;;;;;;;;;;;24.00;38.80;;;;;;5029767;28;20075;-70
2022/06/22 09:51:32;;;;;;;;;;;24.00;38.10;;;;;;5030605;28;20180;-70
2022/06/22 09:57:01;;;;;;;;;;;24.20;37.10;;;;;;5028036;28;20015;-70
2022/06/22 09:59:46;;;;;;;;;;;24.40;37.00;;;;;;5026278;28;19925;-69
2022/06/22 10:02:21;;;;;;;;;;;24.70;37.10;;;;;;5023726;28;19983;-70
2022/06/22 10:05:24;;;;;;;;;;;24.60;38.50;;;;;;5027415;28;19991;-70
2022/06/22 10:07:56;;;;;;;;;;;23.80;37.90;;;;;;5029267;28;19961;-71
2022/06/22 10:10:27;;;;;;;;;;;24.00;37.40;;;;;;5026378;28;20028;-71
2022/06/22 10:13:02;;;;;;;;;;;24.30;38.30;;;;;;5023662;28;19943;-70
2022/06/22 10:15:52;;;;;;;;;;;24.00;36.60;;;;;;5027522;28;19936;-69
2022/06/22 10:18:33;;;;;;;;;;;23.10;36.30;;;;;;5009608;28;20012;-69
2022/06/22 10:21:07;;;;;;;;;;;23.10;36.00;;;;;;5021308;28;20003;-69
2022/06/22 10:23:42;;;;;;;;;;;23.20;34.90;;;;;;5016538;28;20492;-69
2022/06/22 10:26:16;;;;;;;;;;;23.20;32.30;;;;;;5027073;28;19941;-69
2022/06/22 10:28:57;;;;;;;;;;;23.20;33.60;;;;;;5024616;28;19979;-70
2022/06/22 10:31:28;;;;;;;;;;;23.30;34.20;;;;;;5028592;28;19979;-71
2022/06/22 10:34:06;;;;;;;;;;;23.40;35.80;;;;;;5024570;28;19937;-69
2022/06/22 10:36:48;;;;;;;;;;;23.40;33.70;;;;;;5022706;28;19925;-70
2022/06/22 10:39:23;;;;;;;;;;;23.70;33.20;;;;;;5021601;28;20367;-70
2022/06/22 10:45:11;;;;;;;;;;;23.60;32.40;;;;;;5023910;28;19979;-70
2022/06/22 10:47:50;;;;;;;;;;;23.40;30.20;;;;;;5011711;28;19991;-71
2022/06/22 10:50:32;;;;;;;;;;;23.70;31.70;;;;;;5019849;28;20661;-71
2022/06/22 10:53:17;;;;;;;;;;;23.40;31.40;;;;;;5024306;28;19929;-70
2022/06/22 10:55:52;;;;;;;;;;;23.80;32.70;;;;;;5022575;28;20438;-70
2022/06/22 10:58:30;;;;;;;;;;;23.90;33.10;;;;;;5020809;28;19933;-69
2022/06/22 11:01:10;;;;;;;;;;;23.70;33.40;;;;;;5027273;28;19999;-70
2022/06/22 11:03:57;;;;;;;;;;;23.60;32.50;;;;;;5025114;28;20434;-71
2022/06/22 11:06:50;;;;;;;;;;;23.50;33.80;;;;;;5024175;28;20025;-71
2022/06/22 11:09:36;;;;;;;;;;;23.30;33.30;;;;;;5022210;28;20028;-71
2022/06/22 11:12:20;;;;;;;;;;;23.60;32.20;;;;;;5024172;28;19925;-71
2022/06/22 11:15:10;;;;;;;;;;;23.70;32.70;;;;;;5011819;28;19929;-71
2022/06/22 11:17:50;;;;;;;;;;;23.90;32.60;;;;;;5023216;28;20017;-71
2022/06/22 11:20:35;;;;;;;;;;;23.70;33.40;;;;;;5024209;28;20002;-71
2022/06/22 11:23:05;;;;;;;;;;;23.70;32.80;;;;;;5024165;28;20269;-70
2022/06/22 11:31:30;;;;;;;;;;;24.20;30.80;;;;;;5025128;28;19938;-70
2022/06/22 11:34:21;;;;;;;;;;;24.20;30.60;;;;;;5021544;28;20595;-70
2022/06/22 11:36:53;;;;;;;;;;;24.40;30.90;;;;;;5018928;28;19936;-71
2022/06/22 11:39:28;;;;;;;;;;;24.10;29.80;;;;;;5025393;28;19925;-71
2022/06/22 11:42:05;;;;;;;;;;;24.10;28.20;;;;;;5024176;28;20011;-71
2022/06/22 11:44:42;;;;;;;;;;;24.40;30.00;;;;;;5020434;28;19933;-71
2022/06/22 11:47:13;;;;;;;;;;;24.30;29.60;;;;;;5023400;28;19933;-71
2022/06/22 11:49:45;;;;;;;;;;;24.20;29.60;;;;;;5024129;28;20033;-71
2022/06/22 11:52:27;;;;;;;;;;;24.10;28.40;;;;;;5017145;28;19964;-71
2022/06/22 11:55:02;;;;;;;;;;;23.90;28.60;;;;;;5022740;28;19925;-71
2022/06/22 11:57:38;;;;;;;;;;;24.30;29.70;;;;;;5023147;28;19925;-70
2022/06/22 12:00:12;;;;;;;;;;;24.10;27.50;;;;;;5021436;28;19990;-72
2022/06/22 12:02:49;;;;;;;;;;;24.20;29.30;;;;;;5024668;28;19933;-71
2022/06/22 12:05:26;;;;;;;;;;;23.90;30.60;;;;;;5025915;28;19933;-72
2022/06/22 12:07:59;;;;;;;;;;;24.30;31.20;;;;;;5023030;28;20335;-72
2022/06/22 12:10:41;;;;;;;;;;;24.50;30.50;;;;;;5029135;28;19929;-70
2022/06/22 12:13:21;;;;;;;;;;;24.40;31.40;;;;;;5020508;28;20015;-71
2022/06/22 12:15:55;;;;;;;;;;;24.70;29.60;;;;;;5031185;28;20256;-69
2022/06/22 12:18:38;;;;;;;;;;;24.90;29.40;;;;;;5013362;28;19929;-73
2022/06/22 12:21:22;;;;;;;;;;;24.50;28.70;;;;;;5026358;28;19983;-69
2022/06/22 12:23:54;;;;;;;;;;;24.80;28.00;;;;;;5021142;28;20384;-72
2022/06/22 12:26:25;;;;;;;;;;;25.00;27.20;;;;;;5022434;28;19925;-71
2022/06/22 12:29:23;;;;;;;;;;;24.40;28.20;;;;;;5026078;28;20015;-70
2022/06/22 12:31:52;;;;;;;;;;;24.60;27.10;;;;;;4946927;28;19934;-69
2022/06/22 12:34:25;;;;;;;;;;;24.80;25.40;;;;;;5003275;28;19944;-70
2022/06/22 12:36:56;;;;;;;;;;;24.60;26.90;;;;;;5026628;28;19925;-70
2022/06/22 12:39:26;;;;;;;;;;;24.60;27.40;;;;;;5021385;28;19979;-70
2022/06/22 12:42:01;;;;;;;;;;;25.00;27.40;;;;;;5018702;28;19995;-70
2022/06/22 12:44:43;;;;;;;;;;;25.30;26.50;;;;;;5022220;28;19933;-70
2022/06/22 12:47:29;;;;;;;;;;;25.20;25.90;;;;;;5020961;28;19956;-70
2022/06/22 12:50:04;;;;;;;;;;;25.10;26.00;;;;;;5021175;28;20059;-72
2022/06/22 12:52:34;;;;;;;;;;;24.70;26.80;;;;;;5020399;28;19944;-71
2022/06/22 12:55:07;;;;;;;;;;;24.50;27.70;;;;;;5024123;28;19932;-74
2022/06/22 12:57:36;;;;;;;;;;;24.60;27.80;;;;;;5027638;28;20403;-72
2022/06/22 13:00:05;;;;;;;;;;;25.20;26.80;;;;;;5024445;28;19925;-72
2022/06/22 13:02:34;;;;;;;;;;;25.20;26.40;;;;;;5017715;28;19926;-71
2022/06/22 13:05:01;;;;;;;;;;;25.10;25.10;;;;;;5017216;28;19929;-70
2022/06/22 13:07:30;;;;;;;;;;;24.90;24.70;;;;;;5023310;28;20019;-70
2022/06/22 13:09:57;;;;;;;;;;;25.30;24.30;;;;;;5027793;28;22220;-71
2022/06/22 13:12:28;;;;;;;;;;;25.80;25.10;;;;;;5020121;28;19933;-69
2022/06/22 13:14:58;;;;;;;;;;;25.50;23.60;;;;;;5017364;28;20407;-69
2022/06/22 13:17:29;;;;;;;;;;;25.20;25.00;;;;;;5020952;28;19932;-70
2022/06/22 13:20:09;;;;;;;;;;;25.00;26.80;;;;;;5021875;28;19925;-70
2022/06/22 13:22:39;;;;;;;;;;;25.00;26.50;;;;;;5026994;28;19933;-70
2022/06/22 13:25:10;;;;;;;;;;;25.00;26.60;;;;;;5029206;28;19941;-70
2022/06/22 13:27:43;;;;;;;;;;;25.30;26.70;;;;;;5027251;28;20023;-70
2022/06/22 13:30:16;;;;;;;;;;;25.50;25.50;;;;;;5025621;28;20690;-69
2022/06/22 13:32:45;;;;;;;;;;;25.40;25.50;;;;;;5023399;28;20598;-69
2022/06/22 13:35:17;;;;;;;;;;;25.70;24.50;;;;;;5023704;28;20027;-69
2022/06/22 13:37:47;;;;;;;;;;;25.70;22.70;;;;;;5027807;28;19929;-69
2022/06/22 13:40:26;;;;;;;;;;;25.40;22.80;;;;;;5026975;28;19929;-71
2022/06/22 13:43:00;;;;;;;;;;;25.50;24.50;;;;;;5026718;28;20384;-70
2022/06/22 13:45:36;;;;;;;;;;;25.60;24.00;;;;;;5023673;28;20063;-71
2022/06/22 13:48:12;;;;;;;;;;;25.80;23.20;;;;;;5024827;28;20381;-70
2022/06/22 13:50:54;;;;;;;;;;;25.90;23.40;;;;;;5024062;28;20376;-72
2022/06/22 13:53:28;;;;;;;;;;;25.80;20.60;;;;;;5025389;28;20396;-72
2022/06/22 13:55:59;;;;;;;;;;;25.90;21.80;;;;;;5020996;28;19925;-72
2022/06/22 13:58:29;;;;;;;;;;;25.50;22.20;;;;;;5021712;28;20455;-72
2022/06/22 14:01:00;;;;;;;;;;;25.60;22.80;;;;;;5024359;28;19933;-72
2022/06/22 14:03:31;;;;;;;;;;;26.00;22.10;;;;;;5021389;28;20011;-71
2022/06/22 14:06:00;;;;;;;;;;;25.80;22.70;;;;;;5021733;28;19925;-72
2022/06/22 14:08:41;;;;;;;;;;;25.80;22.60;;;;;;5020805;28;20377;-72
2022/06/22 14:11:12;;;;;;;;;;;25.90;20.30;;;;;;5021551;28;19987;-71
2022/06/22 14:13:41;;;;;;;;;;;26.10;20.70;;;;;;5021564;28;20305;-71
2022/06/22 14:16:10;;;;;;;;;;;25.60;20.80;;;;;;5021872;28;19929;-71
2022/06/22 14:18:41;;;;;;;;;;;25.60;21.30;;;;;;5017638;28;20027;-72
2022/06/22 14:21:11;;;;;;;;;;;25.70;21.50;;;;;;5020829;28;21546;-70
2022/06/22 14:23:40;;;;;;;;;;;26.00;20.00;;;;;;5017782;28;19933;-70
2022/06/22 14:26:21;;;;;;;;;;;26.00;19.90;;;;;;5022769;28;19936;-71
2022/06/22 14:28:56;;;;;;;;;;;26.10;20.40;;;;;;5021823;28;19925;-71
2022/06/22 14:31:27;;;;;;;;;;;26.40;20.00;;;;;;5018019;28;19933;-70
2022/06/22 14:33:57;;;;;;;;;;;26.20;18.80;;;;;;5017902;28;20603;-73
2022/06/22 14:36:29;;;;;;;;;;;26.10;18.20;;;;;;5021077;28;19972;-73
2022/06/22 14:39:03;;;;;;;;;;;26.50;18.90;;;;;;5017928;28;20376;-73
2022/06/22 14:41:33;;;;;;;;;;;26.30;18.00;;;;;;5017010;28;19933;-71
2022/06/22 14:44:14;;;;;;;;;;;26.00;18.10;;;;;;5018524;28;19925;-72
2022/06/22 14:46:45;;;;;;;;;;;26.10;19.20;;;;;;5023778;28;19925;-72
2022/06/22 14:49:15;;;;;;;;;;;26.20;17.90;;;;;;5021097;28;19963;-72
2022/06/22 14:51:46;;;;;;;;;;;26.40;17.50;;;;;;5022707;28;20339;-72
2022/06/22 14:54:18;;;;;;;;;;;26.30;17.40;;;;;;5019618;28;19925;-72
2022/06/22 14:56:46;;;;;;;;;;;26.20;17.70;;;;;;5019912;28;19925;-72
2022/06/22 14:59:19;;;;;;;;;;;26.40;17.80;;;;;;5020541;28;19933;-72
2022/06/22 15:01:49;;;;;;;;;;;26.30;17.60;;;;;;5022901;28;19925;-72
2022/06/22 15:04:21;;;;;;;;;;;26.20;18.10;;;;;;5028207;28;19929;-72
2022/06/22 15:06:53;;;;;;;;;;;26.50;18.10;;;;;;5022327;28;19933;-73
2022/06/22 15:09:22;;;;;;;;;;;26.50;17.30;;;;;;5021096;28;19971;-73